createdAt,value
2018-12-19T00:01:40.059Z,2.00
2018-12-19T00:04:07.651Z,1.80
2018-12-19T00:06:35.283Z,1.80
2018-12-19T00:09:04.876Z,1.90
2018-12-19T00:11:32.483Z,1.90
2018-12-19T00:14:00.071Z,1.90
2018-12-19T00:16:27.647Z,1.90
2018-12-19T00:18:55.279Z,1.90
2018-12-19T00:21:22.843Z,2.10
2018-12-19T00:23:50.448Z,2.00
2018-12-19T00:26:18.050Z,2.00
2018-12-19T00:28:45.667Z,2.10
2018-12-19T00:31:13.242Z,2.00
2018-12-19T00:33:40.839Z,2.10
2018-12-19T00:36:08.453Z,2.10
2018-12-19T00:38:36.053Z,2.00
2018-12-19T00:41:03.676Z,2.00
2018-12-19T00:43:31.299Z,2.10
2018-12-19T00:45:58.873Z,2.20
2018-12-19T00:48:26.468Z,2.20
2018-12-19T00:50:54.078Z,2.20
2018-12-19T00:53:21.630Z,2.20
2018-12-19T00:55:49.265Z,2.20
2018-12-19T00:58:16.829Z,2.30
2018-12-19T01:00:44.420Z,2.30
2018-12-19T01:03:12.025Z,2.40
2018-12-19T01:05:39.583Z,2.30
2018-12-19T01:08:07.187Z,2.40
2018-12-19T01:10:34.767Z,2.30
2018-12-19T01:13:02.431Z,2.50
2018-12-19T01:15:30.024Z,2.50
2018-12-19T01:17:57.625Z,2.40
2018-12-19T01:20:25.238Z,2.60
2018-12-19T01:22:52.811Z,2.50
2018-12-19T01:25:20.500Z,2.60
2018-12-19T01:27:48.063Z,2.60
2018-12-19T01:30:15.688Z,2.60
2018-12-19T01:32:43.268Z,2.50
2018-12-19T01:35:10.870Z,2.60
2018-12-19T01:37:38.463Z,2.60
2018-12-19T01:40:06.742Z,2.60
2018-12-19T01:42:34.345Z,2.50
2018-12-19T01:45:01.903Z,2.50
2018-12-19T01:47:29.525Z,2.70
2018-12-19T01:49:57.098Z,2.70
2018-12-19T01:52:24.700Z,2.80
2018-12-19T01:54:52.273Z,2.70
2018-12-19T01:57:19.902Z,2.70
2018-12-19T01:59:47.467Z,2.70
2018-12-19T02:02:15.121Z,2.70
2018-12-19T02:04:42.738Z,2.60
2018-12-19T02:07:10.337Z,2.80
2018-12-19T02:09:37.929Z,2.80
2018-12-19T02:12:05.551Z,2.90
2018-12-19T02:14:34.265Z,2.80
2018-12-19T02:17:02.861Z,2.80
2018-12-19T02:19:30.573Z,2.80
2018-12-19T02:21:58.448Z,2.70
2018-12-19T02:24:26.241Z,2.80
2018-12-19T02:26:54.069Z,2.80
2018-12-19T02:29:21.783Z,2.80
2018-12-19T02:31:49.593Z,2.80
2018-12-19T02:34:22.130Z,2.80
2018-12-19T02:36:49.882Z,2.90
2018-12-19T02:39:17.707Z,2.90
2018-12-19T02:41:45.570Z,3.00
2018-12-19T02:44:13.268Z,3.00
2018-12-19T02:46:42.833Z,3.10
2018-12-19T02:49:10.626Z,3.00
2018-12-19T02:51:38.509Z,3.00
2018-12-19T02:54:06.332Z,3.00
2018-12-19T02:56:34.143Z,3.00
2018-12-19T02:59:01.957Z,3.10
2018-12-19T03:01:29.839Z,3.10
2018-12-19T03:03:57.707Z,3.10
2018-12-19T03:06:25.621Z,3.00
2018-12-19T03:08:53.323Z,3.00
2018-12-19T03:11:21.136Z,3.00
2018-12-19T03:13:51.473Z,3.00
2018-12-19T03:16:19.312Z,3.10
2018-12-19T03:18:47.982Z,3.10
2018-12-19T03:21:15.845Z,3.10
2018-12-19T03:23:43.653Z,3.10
2018-12-19T03:26:11.464Z,3.20
2018-12-19T03:28:39.336Z,3.20
2018-12-19T03:31:07.163Z,3.40
2018-12-19T03:33:35.942Z,3.20
2018-12-19T03:36:03.848Z,3.20
2018-12-19T03:38:31.675Z,3.20
2018-12-19T03:40:59.639Z,3.10
2018-12-19T03:43:27.420Z,3.20
2018-12-19T03:45:55.152Z,3.20
2018-12-19T03:51:25.252Z,3.20
2018-12-19T03:53:53.101Z,3.20
2018-12-19T03:56:20.880Z,3.20
2018-12-19T03:58:48.736Z,3.20
2018-12-19T04:01:16.646Z,3.20
2018-12-19T04:03:44.420Z,3.40
2018-12-19T04:06:15.654Z,3.50
2018-12-19T04:08:43.431Z,3.40
2018-12-19T04:11:12.265Z,3.30
2018-12-19T04:13:41.000Z,3.30
2018-12-19T04:16:08.775Z,3.30
2018-12-19T04:18:36.610Z,3.40
2018-12-19T04:21:04.602Z,3.30
2018-12-19T04:23:32.314Z,3.30
2018-12-19T04:26:00.073Z,3.30
2018-12-19T04:28:27.835Z,3.20
2018-12-19T04:30:55.626Z,3.20
2018-12-19T04:33:23.385Z,3.20
2018-12-19T04:35:51.167Z,3.10
2018-12-19T04:38:19.083Z,3.10
2018-12-19T04:40:46.816Z,3.00
2018-12-19T04:43:14.558Z,3.00
2018-12-19T04:45:42.309Z,3.00
2018-12-19T04:48:10.089Z,3.00
2018-12-19T04:50:38.662Z,3.00
2018-12-19T04:53:06.394Z,3.00
2018-12-19T04:55:34.162Z,3.00
2018-12-19T04:58:02.160Z,3.00
2018-12-19T05:00:29.893Z,3.10
2018-12-19T05:02:57.673Z,3.20
2018-12-19T05:05:25.948Z,3.20
2018-12-19T05:07:54.320Z,3.20
2018-12-19T05:10:22.949Z,3.20
2018-12-19T05:12:50.635Z,3.30
2018-12-19T05:15:18.352Z,3.30
2018-12-19T05:17:46.358Z,3.30
2018-12-19T05:20:14.106Z,3.30
2018-12-19T05:22:41.750Z,3.30
2018-12-19T05:25:14.547Z,3.20
2018-12-19T05:27:42.256Z,3.30
2018-12-19T05:30:10.360Z,3.40
2018-12-19T05:32:38.033Z,3.30
2018-12-19T05:35:06.365Z,3.40
2018-12-19T05:37:34.002Z,3.30
2018-12-19T05:40:01.650Z,3.40
2018-12-19T05:42:29.371Z,3.40
2018-12-19T05:44:57.043Z,3.40
2018-12-19T05:47:24.763Z,3.40
2018-12-19T05:49:53.481Z,3.40
2018-12-19T05:52:23.344Z,3.50
2018-12-19T05:54:53.088Z,3.50
2018-12-19T05:57:21.173Z,3.60
2018-12-19T05:59:50.311Z,3.60
2018-12-19T06:02:17.966Z,3.60
2018-12-19T06:04:45.693Z,3.50
2018-12-19T06:07:13.303Z,3.50
2018-12-19T06:09:40.935Z,3.60
2018-12-19T06:12:10.096Z,3.60
2018-12-19T06:14:37.827Z,3.60
2018-12-19T06:17:05.701Z,3.70
2018-12-19T06:19:33.466Z,3.80
2018-12-19T06:22:01.556Z,3.80
2018-12-19T06:24:29.259Z,3.80
2018-12-19T06:26:56.890Z,3.80
2018-12-19T06:29:24.629Z,3.90
2018-12-19T06:31:52.604Z,4.00
2018-12-19T06:34:20.180Z,3.80
2018-12-19T06:36:47.843Z,3.90
2018-12-19T06:39:15.395Z,3.80
2018-12-19T06:41:43.147Z,3.80
2018-12-19T06:44:10.921Z,3.80
2018-12-19T06:46:38.592Z,3.70
2018-12-19T06:49:06.321Z,3.70
2018-12-19T06:51:33.943Z,3.60
2018-12-19T06:54:01.626Z,3.60
2018-12-19T06:56:29.293Z,3.70
2018-12-19T06:58:57.026Z,3.80
2018-12-19T07:01:24.731Z,3.90
2018-12-19T07:03:52.706Z,3.90
2018-12-19T07:06:21.228Z,3.80
2018-12-19T07:08:49.133Z,3.90
2018-12-19T07:11:17.095Z,3.90
2018-12-19T07:13:44.843Z,3.70
2018-12-19T07:16:12.579Z,3.90
2018-12-19T07:18:40.292Z,3.80
2018-12-19T07:21:07.920Z,3.80
2018-12-19T07:23:36.380Z,3.70
2018-12-19T07:26:04.206Z,3.70
2018-12-19T07:28:31.801Z,3.60
2018-12-19T07:30:59.419Z,3.80
2018-12-19T07:33:27.217Z,3.80
2018-12-19T07:35:55.078Z,3.70
2018-12-19T07:38:22.688Z,3.60
2018-12-19T07:40:51.785Z,3.70
2018-12-19T07:43:19.519Z,3.90
2018-12-19T07:45:47.160Z,4.00
2018-12-19T07:48:15.023Z,4.00
2018-12-19T07:50:42.702Z,4.10
2018-12-19T07:53:10.782Z,4.00
2018-12-19T07:55:46.976Z,4.10
2018-12-19T07:58:14.627Z,3.90
2018-12-19T08:00:42.280Z,4.00
2018-12-19T08:03:09.887Z,3.90
2018-12-19T08:05:37.470Z,4.00
2018-12-19T08:08:05.104Z,4.10
2018-12-19T08:10:32.720Z,4.10
2018-12-19T08:13:00.966Z,4.10
2018-12-19T08:15:28.659Z,4.10
2018-12-19T08:17:56.263Z,4.30
2018-12-19T08:20:23.835Z,4.20
2018-12-19T08:22:52.039Z,4.20
2018-12-19T08:25:20.127Z,4.20
2018-12-19T08:27:47.753Z,4.20
2018-12-19T08:30:15.375Z,4.20
2018-12-19T08:32:42.966Z,4.20
2018-12-19T08:35:10.567Z,4.30
2018-12-19T08:37:38.211Z,4.50
2018-12-19T08:40:06.210Z,4.40
2018-12-19T08:42:33.977Z,4.40
2018-12-19T08:45:01.565Z,4.30
2018-12-19T08:47:29.157Z,4.40
2018-12-19T08:49:57.375Z,4.60
2018-12-19T08:52:24.990Z,4.70
2018-12-19T08:54:52.571Z,4.60
2018-12-19T08:57:20.139Z,4.60
2018-12-19T08:59:47.828Z,4.50
2018-12-19T09:02:15.797Z,4.40
2018-12-19T09:04:43.407Z,4.50
2018-12-19T09:07:10.993Z,4.40
2018-12-19T09:09:38.669Z,4.40
2018-12-19T09:12:06.307Z,4.50
2018-12-19T09:14:33.893Z,4.70
2018-12-19T09:17:01.856Z,4.60
2018-12-19T09:19:29.523Z,4.40
2018-12-19T09:21:57.332Z,4.50
2018-12-19T09:24:24.908Z,4.50
2018-12-19T09:26:52.514Z,4.70
2018-12-19T09:29:20.110Z,4.70
2018-12-19T09:31:47.758Z,4.70
2018-12-19T09:34:15.361Z,4.60
2018-12-19T09:36:42.930Z,4.70
2018-12-19T09:39:10.794Z,4.70
2018-12-19T09:41:38.556Z,4.80
2018-12-19T09:44:08.621Z,4.90
2018-12-19T09:46:36.411Z,4.90
2018-12-19T09:49:04.012Z,4.90
2018-12-19T09:51:31.683Z,5.00
2018-12-19T09:53:59.248Z,5.00
2018-12-19T09:56:26.808Z,5.00
2018-12-19T09:58:54.433Z,5.10
2018-12-19T10:01:22.058Z,5.00
2018-12-19T10:03:49.668Z,5.10
2018-12-19T10:06:17.252Z,5.10
2018-12-19T10:08:44.884Z,5.00
2018-12-19T10:11:18.610Z,5.00
2018-12-19T10:13:52.280Z,5.10
2018-12-19T10:16:19.928Z,5.10
2018-12-19T10:18:47.540Z,5.20
2018-12-19T10:21:15.148Z,5.10
2018-12-19T10:23:42.767Z,5.10
2018-12-19T10:26:12.703Z,5.10
2018-12-19T10:28:40.258Z,5.10
2018-12-19T10:31:07.911Z,5.20
2018-12-19T10:33:35.535Z,5.20
2018-12-19T10:36:03.251Z,5.20
2018-12-19T10:38:30.841Z,5.30
2018-12-19T10:40:58.408Z,5.40
2018-12-19T10:43:26.075Z,5.30
2018-12-19T10:45:53.642Z,5.30
2018-12-19T10:48:21.246Z,5.30
2018-12-19T10:50:48.855Z,5.30
2018-12-19T10:53:16.441Z,5.20
2018-12-19T10:55:44.088Z,5.30
2018-12-19T10:58:11.711Z,5.20
2018-12-19T11:00:45.091Z,5.30
2018-12-19T11:03:12.695Z,5.40
2018-12-19T11:05:40.256Z,5.40
2018-12-19T11:08:07.919Z,5.40
2018-12-19T11:10:36.387Z,5.50
2018-12-19T11:13:04.773Z,5.60
2018-12-19T11:15:32.395Z,5.60
2018-12-19T11:17:59.997Z,5.60
2018-12-19T11:20:27.621Z,5.60
2018-12-19T11:22:55.171Z,5.60
2018-12-19T11:25:22.779Z,5.60
2018-12-19T11:27:50.349Z,5.60
2018-12-19T11:30:17.971Z,5.60
2018-12-19T11:32:45.620Z,5.80
2018-12-19T11:35:13.235Z,5.80
2018-12-19T11:37:40.906Z,5.80
2018-12-19T11:40:08.696Z,5.90
2018-12-19T11:42:36.284Z,5.90
2018-12-19T11:45:04.903Z,5.90
2018-12-19T11:47:32.559Z,6.00
2018-12-19T11:50:00.176Z,6.00
2018-12-19T11:52:27.932Z,6.00
2018-12-19T11:54:55.573Z,6.00
2018-12-19T11:57:23.339Z,6.00
2018-12-19T11:59:51.118Z,6.00
2018-12-19T12:02:18.748Z,6.00
2018-12-19T12:04:46.410Z,6.10
2018-12-19T12:07:14.188Z,6.10
2018-12-19T12:09:41.878Z,6.10
2018-12-19T12:12:09.566Z,6.30
2018-12-19T12:14:37.176Z,6.20
2018-12-19T12:17:06.618Z,6.10
2018-12-19T12:19:34.208Z,6.20
2018-12-19T12:22:01.868Z,6.20
2018-12-19T12:24:29.463Z,6.10
2018-12-19T12:26:57.085Z,6.00
2018-12-19T12:29:24.645Z,6.00
2018-12-19T12:31:52.248Z,6.00
2018-12-19T12:34:19.820Z,5.90
2018-12-19T12:36:47.925Z,5.90
2018-12-19T12:39:15.794Z,5.90
2018-12-19T12:41:43.452Z,5.90
2018-12-19T12:44:11.107Z,5.80
2018-12-19T12:46:38.723Z,5.90
2018-12-19T12:49:06.397Z,5.90
2018-12-19T12:51:34.018Z,6.00
2018-12-19T12:54:01.893Z,6.00
2018-12-19T12:56:40.150Z,6.00
2018-12-19T12:59:15.598Z,6.10
2018-12-19T13:01:46.177Z,6.20
2018-12-19T13:04:13.791Z,6.30
2018-12-19T13:06:41.409Z,6.30
2018-12-19T13:09:09.186Z,6.20
2018-12-19T13:11:36.792Z,6.10
2018-12-19T13:14:04.488Z,6.20
2018-12-19T13:16:32.094Z,6.40
2018-12-19T13:19:00.660Z,6.50
2018-12-19T13:21:30.025Z,6.50
2018-12-19T13:23:57.710Z,6.50
2018-12-19T13:26:26.516Z,6.50
2018-12-19T13:28:54.106Z,6.40
2018-12-19T13:31:22.680Z,6.40
2018-12-19T13:33:51.130Z,6.30
2018-12-19T13:36:18.776Z,6.30
2018-12-19T13:38:46.461Z,6.30
2018-12-19T13:41:14.041Z,6.30
2018-12-19T13:43:41.706Z,6.20
2018-12-19T13:46:09.398Z,6.30
2018-12-19T13:48:36.986Z,6.30
2018-12-19T13:51:04.644Z,6.40
2018-12-19T13:53:32.222Z,6.40
2018-12-19T13:55:59.835Z,6.30
2018-12-19T13:58:27.525Z,6.20
2018-12-19T14:00:55.159Z,6.20
2018-12-19T14:03:22.869Z,6.20
2018-12-19T14:05:50.469Z,6.20
2018-12-19T14:08:18.069Z,6.30
2018-12-19T14:10:45.660Z,6.30
2018-12-19T14:13:18.117Z,6.30
2018-12-19T14:15:46.150Z,6.40
2018-12-19T14:18:13.775Z,6.30
2018-12-19T14:20:41.355Z,6.40
2018-12-19T14:23:08.955Z,6.30
2018-12-19T14:25:36.514Z,6.30
2018-12-19T14:28:04.114Z,6.30
2018-12-19T14:30:31.740Z,6.30
2018-12-19T14:32:59.311Z,6.30
2018-12-19T14:35:27.054Z,6.30
2018-12-19T14:37:54.608Z,6.30
2018-12-19T14:40:22.172Z,6.20
2018-12-19T14:42:49.783Z,6.20
2018-12-19T14:45:17.570Z,6.20
2018-12-19T14:47:45.426Z,6.10
2018-12-19T14:50:13.075Z,6.20
2018-12-19T14:52:41.461Z,6.20
2018-12-19T14:55:09.766Z,6.20
2018-12-19T14:57:37.371Z,6.20
2018-12-19T15:00:08.430Z,6.10
2018-12-19T15:02:36.068Z,6.10
2018-12-19T15:05:05.182Z,6.10
2018-12-19T15:07:32.761Z,6.10
2018-12-19T15:10:00.837Z,6.10
2018-12-19T15:12:28.435Z,6.10
2018-12-19T15:14:56.038Z,6.10
2018-12-19T15:17:23.865Z,6.10
2018-12-19T15:19:51.440Z,6.20
2018-12-19T15:22:19.054Z,6.20
2018-12-19T15:24:46.622Z,6.20
2018-12-19T15:27:14.254Z,6.20
2018-12-19T15:29:41.823Z,6.20
2018-12-19T15:32:09.418Z,6.20
2018-12-19T15:34:37.035Z,6.20
2018-12-19T15:37:04.667Z,6.20
2018-12-19T15:39:32.581Z,6.20
2018-12-19T15:42:00.210Z,6.20
2018-12-19T15:44:27.781Z,6.10
2018-12-19T15:46:55.407Z,6.20
2018-12-19T15:49:23.022Z,6.20
2018-12-19T15:51:50.594Z,6.10
2018-12-19T15:54:18.155Z,6.20
2018-12-19T15:56:45.764Z,7.00
2018-12-19T15:59:13.318Z,6.20
2018-12-19T16:01:40.974Z,6.10
2018-12-19T16:04:08.566Z,6.10
2018-12-19T16:06:36.131Z,6.10
2018-12-19T16:09:05.415Z,6.20
2018-12-19T16:11:33.040Z,6.10
2018-12-19T16:14:00.680Z,6.10
2018-12-19T16:16:28.255Z,6.10
2018-12-19T16:18:55.815Z,6.10
2018-12-19T16:21:23.427Z,6.10
2018-12-19T16:23:51.011Z,6.10
2018-12-19T16:26:18.724Z,6.00
2018-12-19T16:28:46.356Z,6.10
2018-12-19T16:31:13.942Z,6.10
2018-12-19T16:33:41.511Z,6.00
2018-12-19T16:36:09.123Z,6.10
2018-12-19T16:38:36.794Z,6.10
2018-12-19T16:41:04.370Z,6.00
2018-12-19T16:43:31.931Z,6.20
2018-12-19T16:45:59.542Z,6.10
2018-12-19T16:48:28.261Z,6.10
2018-12-19T16:50:55.855Z,6.10
2018-12-19T16:53:23.561Z,6.10
2018-12-19T16:55:51.299Z,6.20
2018-12-19T16:58:18.949Z,6.20
2018-12-19T17:00:46.676Z,6.10
2018-12-19T17:03:14.327Z,6.10
2018-12-19T17:05:42.107Z,6.10
2018-12-19T17:08:09.663Z,6.10
2018-12-19T17:10:37.574Z,6.10
2018-12-19T17:13:05.159Z,6.10
2018-12-19T17:15:32.782Z,6.20
2018-12-19T17:18:00.347Z,6.30
2018-12-19T17:20:27.923Z,6.40
2018-12-19T17:22:55.591Z,6.30
2018-12-19T17:25:23.167Z,6.20
2018-12-19T17:27:50.736Z,6.20
2018-12-19T17:30:18.357Z,6.20
2018-12-19T17:32:46.771Z,6.20
2018-12-19T17:35:14.603Z,6.20
2018-12-19T17:37:42.158Z,6.10
2018-12-19T17:40:09.750Z,6.10
2018-12-19T17:42:37.340Z,6.10
2018-12-19T17:45:05.630Z,6.10
2018-12-19T17:47:33.184Z,6.10
2018-12-19T17:50:00.970Z,6.20
2018-12-19T17:52:28.596Z,6.20
2018-12-19T17:54:56.161Z,6.10
2018-12-19T17:57:23.739Z,6.10
2018-12-19T17:59:51.347Z,6.10
2018-12-19T18:02:18.970Z,6.10
2018-12-19T18:04:46.535Z,6.10
2018-12-19T18:07:14.129Z,6.20
2018-12-19T18:09:41.719Z,6.20
2018-12-19T18:12:09.343Z,6.10
2018-12-19T18:14:36.918Z,6.10
2018-12-19T18:17:04.519Z,6.00
2018-12-19T18:19:32.119Z,6.00
2018-12-19T18:21:59.689Z,6.00
2018-12-19T18:24:27.267Z,6.00
2018-12-19T18:26:54.866Z,6.00
2018-12-19T18:29:22.423Z,6.00
2018-12-19T18:31:50.022Z,6.00
2018-12-19T18:34:17.613Z,6.20
2018-12-19T18:36:45.190Z,6.20
2018-12-19T18:39:12.834Z,6.10
2018-12-19T18:41:40.398Z,6.10
2018-12-19T18:44:08.027Z,6.20
2018-12-19T18:46:35.643Z,6.30
2018-12-19T18:49:03.336Z,6.30
2018-12-19T18:51:30.955Z,6.30
2018-12-19T18:53:58.503Z,6.20
2018-12-19T18:56:26.078Z,6.20
2018-12-19T18:58:53.691Z,6.30
2018-12-19T19:01:21.311Z,6.30
2018-12-19T19:03:50.392Z,6.20
2018-12-19T19:06:18.101Z,6.20
2018-12-19T19:08:46.755Z,6.20
2018-12-19T19:11:14.424Z,6.20
2018-12-19T19:13:42.023Z,6.20
2018-12-19T19:16:09.648Z,6.20
2018-12-19T19:18:37.251Z,6.30
2018-12-19T19:21:04.814Z,6.10
2018-12-19T19:23:32.422Z,6.10
2018-12-19T19:26:00.029Z,6.10
2018-12-19T19:28:27.630Z,6.20
2018-12-19T19:30:55.228Z,6.10
2018-12-19T19:33:22.833Z,6.00
2018-12-19T19:35:50.419Z,6.00
2018-12-19T19:38:18.016Z,6.00
2018-12-19T19:40:45.590Z,6.00
2018-12-19T19:43:13.318Z,6.00
2018-12-19T19:45:40.907Z,6.00
2018-12-19T19:48:08.487Z,6.10
2018-12-19T19:50:36.103Z,6.10
2018-12-19T19:53:03.700Z,6.10
2018-12-19T19:55:31.311Z,6.10
2018-12-19T19:57:59.020Z,6.10
2018-12-19T20:00:28.382Z,6.10
2018-12-19T20:02:55.960Z,6.00
2018-12-19T20:05:23.577Z,6.00
2018-12-19T20:07:51.259Z,6.10
2018-12-19T20:10:18.866Z,6.10
2018-12-19T20:12:46.435Z,6.10
2018-12-19T20:15:14.055Z,6.20
2018-12-19T20:17:41.619Z,6.10
2018-12-19T20:20:09.331Z,6.20
2018-12-19T20:22:36.899Z,6.20
2018-12-19T20:25:04.524Z,6.10
2018-12-19T20:27:32.214Z,6.20
2018-12-19T20:29:59.774Z,6.20
2018-12-19T20:32:27.490Z,6.20
2018-12-19T20:34:55.066Z,6.20
2018-12-19T20:37:22.692Z,6.20
2018-12-19T20:39:50.261Z,6.30
2018-12-19T20:42:17.985Z,6.30
2018-12-19T20:44:45.590Z,6.20
2018-12-19T20:47:13.168Z,6.30
2018-12-19T20:49:40.776Z,6.30
2018-12-19T20:52:08.330Z,6.40
2018-12-19T20:54:35.942Z,6.40
2018-12-19T20:57:03.518Z,6.30
2018-12-19T20:59:31.095Z,6.30
2018-12-19T21:01:58.832Z,6.20
2018-12-19T21:04:26.555Z,6.20
2018-12-19T21:06:54.284Z,6.10
2018-12-19T21:09:21.904Z,6.10
2018-12-19T21:11:49.593Z,6.20
2018-12-19T21:14:17.156Z,6.30
2018-12-19T21:16:50.537Z,6.30
2018-12-19T21:19:18.106Z,6.20
2018-12-19T21:21:45.706Z,6.30
2018-12-19T21:24:13.271Z,6.20
2018-12-19T21:26:40.907Z,6.20
2018-12-19T21:29:08.475Z,6.10
2018-12-19T21:31:36.088Z,6.10
2018-12-19T21:34:03.700Z,6.10
2018-12-19T21:36:31.322Z,6.20
2018-12-19T21:41:40.599Z,6.10
2018-12-19T21:44:08.163Z,6.20
2018-12-19T21:46:35.874Z,6.20
2018-12-19T21:49:03.467Z,6.20
2018-12-19T21:51:31.084Z,6.30
2018-12-19T21:53:58.838Z,6.30
2018-12-19T21:56:26.522Z,6.30
2018-12-19T21:58:54.182Z,6.30
2018-12-19T22:01:21.743Z,6.40
2018-12-19T22:03:49.347Z,6.30
2018-12-19T22:06:16.921Z,6.30
2018-12-19T22:08:44.587Z,6.40
2018-12-19T22:11:12.264Z,6.40
2018-12-19T22:13:39.828Z,6.40
2018-12-19T22:16:09.445Z,6.30
2018-12-19T22:18:41.983Z,6.30
2018-12-19T22:21:09.656Z,6.30
2018-12-19T22:23:37.301Z,6.30
2018-12-19T22:26:05.007Z,6.40
2018-12-19T22:28:32.606Z,6.40
2018-12-19T22:31:00.369Z,6.50
2018-12-19T22:33:27.931Z,6.60
2018-12-19T22:35:55.564Z,6.50
2018-12-19T22:38:23.223Z,6.60
2018-12-19T22:40:50.788Z,6.70
2018-12-19T22:43:18.514Z,6.70
2018-12-19T22:45:46.159Z,6.70
2018-12-19T22:48:13.773Z,6.60
2018-12-19T22:50:41.392Z,6.60
2018-12-19T22:53:09.129Z,6.60
2018-12-19T22:55:36.778Z,6.60
2018-12-19T22:58:04.487Z,6.70
2018-12-19T23:00:34.279Z,6.80
2018-12-19T23:03:08.105Z,6.90
2018-12-19T23:05:41.463Z,7.00
2018-12-19T23:08:09.076Z,7.00
2018-12-19T23:10:36.665Z,7.10
2018-12-19T23:13:04.375Z,7.00
2018-12-19T23:15:31.971Z,7.00
2018-12-19T23:20:55.925Z,7.00
2018-12-19T23:23:23.541Z,7.00
2018-12-19T23:25:51.172Z,6.90
2018-12-19T23:28:18.920Z,6.90
2018-12-19T23:30:46.615Z,6.90
2018-12-19T23:33:14.252Z,7.00
2018-12-19T23:35:41.868Z,7.00
2018-12-19T23:38:09.440Z,7.00
2018-12-19T23:40:37.053Z,7.10
2018-12-19T23:43:04.631Z,7.10
2018-12-19T23:45:32.323Z,7.10
2018-12-19T23:47:59.971Z,7.10
2018-12-19T23:50:27.663Z,7.20
2018-12-19T23:52:55.332Z,7.10
2018-12-19T23:55:22.940Z,7.00
2018-12-19T23:57:50.503Z,6.90
